Budapest Bridge — VRIZ5 — position and weather

sailwx.info

Track history (hours):
 
Tides and Currents Weather Stations Pressure Air Temp Water Temp Dewpoint Dewpoint Depression Visibility Wind Speed Wind Dir Waves Ship Positions

Budapest Bridge

Last reported at 2015-Aug-27 16:23 UTC. Time now 2015-Aug-30 11:56 UTC.
Position N 33°56' E 134°56'.

Length 268 m; draft 11 m.

Type: Cargo ship. MMSI: 477434200.

Date/timePositionNaut miles runAvg speedWind from/ knotsBaromVisibWave heightAir tempDewpointWater temp
2015-Aug-27 16:23N 33°56' E 134°56'1720.2
2015-Aug-27 15:33N 34°13' E 134°57'1817.8
2015-Aug-27 14:32N 34°29' E 135°08'1413.8
2015-Aug-27 13:33N 34°41' E 135°16'0 0.0
2015-Aug-27 12:29N 34°41' E 135°16'0 0.0
2015-Aug-27 10:23N 34°41' E 135°16'0 0.0
2015-Aug-27 09:29N 34°41' E 135°16'0 0.0
2015-Aug-27 08:17N 34°41' E 135°16'0 0.0
2015-Aug-27 07:32N 34°41' E 135°16'0 0.0
2015-Aug-27 06:26N 34°41' E 135°16'0 0.0
2015-Aug-27 04:11N 34°41' E 135°16'0 0.0
2015-Aug-27 03:26N 34°41' E 135°16'0 0.0
2015-Aug-27 02:32N 34°41' E 135°16'0 0.0
2015-Aug-27 01:29N 34°41' E 135°16'0 0.0
2015-Aug-27 00:32N 34°41' E 135°16'0 0.0
2015-Aug-26 23:32N 34°41' E 135°16'0 0.2
2015-Aug-26 22:34N 34°41' E 135°15'5 5.5
2015-Aug-26 21:33N 34°35' E 135°16'1111.3
2015-Aug-26 20:34N 34°26' E 135°08'1615.6
2015-Aug-26 19:33N 34°12' E 134°59'1312.8
2015-Aug-26 18:33N 33°59' E 134°60'  
2015-Aug-23 22:34N 34°52' E 139°19'1514.7
2015-Aug-23 21:33N 35°01' E 139°33'1414.1
2015-Aug-23 20:34N 35°10' E 139°46'1212.3
2015-Aug-23 19:33N 35°22' E 139°42'5 4.8
2015-Aug-23 18:32N 35°27' E 139°40'0 0.0
2015-Aug-23 17:32N 35°27' E 139°40'0 0.0
2015-Aug-23 16:32N 35°27' E 139°40'0 0.0
2015-Aug-23 15:32N 35°27' E 139°40'0 0.0
2015-Aug-23 14:32N 35°27' E 139°40'0 0.0
2015-Aug-23 13:32N 35°27' E 139°40'0 0.0
2015-Aug-23 12:32N 35°27' E 139°40'0 0.0
2015-Aug-23 11:32N 35°27' E 139°40'0 0.0
2015-Aug-23 10:32N 35°27' E 139°40'0 0.0
2015-Aug-23 09:29N 35°27' E 139°40'0 0.0
2015-Aug-23 08:33N 35°27' E 139°40'3 2.5
2015-Aug-23 07:31N 35°26' E 139°43'0 0.0
2015-Aug-23 06:31N 35°26' E 139°43'0 0.0
2015-Aug-23 05:31N 35°26' E 139°43'0 0.2
2015-Aug-23 04:28N 35°26' E 139°43'0 0.5
2015-Aug-23 03:33N 35°26' E 139°44'3 3.5
2015-Aug-23 02:34N 35°29' E 139°45'0 0.0
2015-Aug-23 01:32N 35°29' E 139°45'0 0.0
2015-Aug-23 00:31N 35°29' E 139°45'0 0.0
2015-Aug-22 23:32N 35°29' E 139°45'0 0.0
2015-Aug-22 22:32N 35°29' E 139°45'3 3.0
2015-Aug-22 21:33N 35°28' E 139°48'9 9.2
2015-Aug-22 20:34N 35°37' E 139°46'0 0.1
2015-Aug-22 19:32N 35°37' E 139°46'0 0.0
2015-Aug-22 18:32N 35°37' E 139°46'0 0.0
2015-Aug-22 17:29N 35°37' E 139°46'0 0.0
2015-Aug-22 16:32N 35°37' E 139°46'0 0.0
2015-Aug-22 15:32N 35°37' E 139°46'0 0.0
2015-Aug-22 14:32N 35°37' E 139°46'0 0.0
2015-Aug-22 13:32N 35°37' E 139°46'0 0.0
2015-Aug-22 12:29N 35°37' E 139°46'0 0.0
2015-Aug-22 11:32N 35°37' E 139°46'0 0.0
2015-Aug-22 10:32N 35°37' E 139°46'0 0.0
2015-Aug-22 09:33N 35°37' E 139°46'5 5.0
2015-Aug-22 08:33N 35°33' E 139°50'9 9.1
2015-Aug-22 07:33N 35°25' E 139°47'1212.2
2015-Aug-22 06:34N 35°13' E 139°47'10 9.6
2015-Aug-22 05:33N 35°04' E 139°43'8 8.2
2015-Aug-22 04:33N 34°59' E 139°34'3 3.4
2015-Aug-22 03:33N 34°58' E 139°31'1414.0
2015-Aug-22 02:33N 34°49' E 139°17'1714.3
2015-Aug-22 01:23N 34°34' E 139°07'  
Track history (hours):
 
Tides and Currents Weather Stations Pressure Air Temp Water Temp Dewpoint Dewpoint Depression Visibility Wind Speed Wind Dir Waves Ship Positions

Budapest Bridge

Last reported at 2015-Aug-27 16:23 UTC. Time now 2015-Aug-30 11:56 UTC.
Position N 33°56' E 134°56'.

Length 268 m; draft 11 m.

Type: Cargo ship. MMSI: 477434200.

Date/timePositionNaut miles runAvg speedWind from/ knotsBaromVisibWave heightAir tempDewpointWater temp
2015-Aug-27 16:23N 33°56' E 134°56'1720.2
2015-Aug-27 15:33N 34°13' E 134°57'1817.8
2015-Aug-27 14:32N 34°29' E 135°08'1413.8
2015-Aug-27 13:33N 34°41' E 135°16'0 0.0
2015-Aug-27 12:29N 34°41' E 135°16'0 0.0
2015-Aug-27 10:23N 34°41' E 135°16'0 0.0
2015-Aug-27 09:29N 34°41' E 135°16'0 0.0
2015-Aug-27 08:17N 34°41' E 135°16'0 0.0
2015-Aug-27 07:32N 34°41' E 135°16'0 0.0
2015-Aug-27 06:26N 34°41' E 135°16'0 0.0
2015-Aug-27 04:11N 34°41' E 135°16'0 0.0
2015-Aug-27 03:26N 34°41' E 135°16'0 0.0
2015-Aug-27 02:32N 34°41' E 135°16'0 0.0
2015-Aug-27 01:29N 34°41' E 135°16'0 0.0
2015-Aug-27 00:32N 34°41' E 135°16'0 0.0
2015-Aug-26 23:32N 34°41' E 135°16'0 0.2
2015-Aug-26 22:34N 34°41' E 135°15'5 5.5
2015-Aug-26 21:33N 34°35' E 135°16'1111.3
2015-Aug-26 20:34N 34°26' E 135°08'1615.6
2015-Aug-26 19:33N 34°12' E 134°59'1312.8
2015-Aug-26 18:33N 33°59' E 134°60'  
2015-Aug-23 22:34N 34°52' E 139°19'1514.7
2015-Aug-23 21:33N 35°01' E 139°33'1414.1
2015-Aug-23 20:34N 35°10' E 139°46'1212.3
2015-Aug-23 19:33N 35°22' E 139°42'5 4.8
2015-Aug-23 18:32N 35°27' E 139°40'0 0.0
2015-Aug-23 17:32N 35°27' E 139°40'0 0.0
2015-Aug-23 16:32N 35°27' E 139°40'0 0.0
2015-Aug-23 15:32N 35°27' E 139°40'0 0.0
2015-Aug-23 14:32N 35°27' E 139°40'0 0.0
2015-Aug-23 13:32N 35°27' E 139°40'0 0.0
2015-Aug-23 12:32N 35°27' E 139°40'0 0.0
2015-Aug-23 11:32N 35°27' E 139°40'0 0.0
2015-Aug-23 10:32N 35°27' E 139°40'0 0.0
2015-Aug-23 09:29N 35°27' E 139°40'0 0.0
2015-Aug-23 08:33N 35°27' E 139°40'3 2.5
2015-Aug-23 07:31N 35°26' E 139°43'0 0.0
2015-Aug-23 06:31N 35°26' E 139°43'0 0.0
2015-Aug-23 05:31N 35°26' E 139°43'0 0.2
2015-Aug-23 04:28N 35°26' E 139°43'0 0.5
2015-Aug-23 03:33N 35°26' E 139°44'3 3.5
2015-Aug-23 02:34N 35°29' E 139°45'0 0.0
2015-Aug-23 01:32N 35°29' E 139°45'0 0.0
2015-Aug-23 00:31N 35°29' E 139°45'0 0.0
2015-Aug-22 23:32N 35°29' E 139°45'0 0.0
2015-Aug-22 22:32N 35°29' E 139°45'3 3.0
2015-Aug-22 21:33N 35°28' E 139°48'9 9.2
2015-Aug-22 20:34N 35°37' E 139°46'0 0.1
2015-Aug-22 19:32N 35°37' E 139°46'0 0.0
2015-Aug-22 18:32N 35°37' E 139°46'0 0.0
2015-Aug-22 17:29N 35°37' E 139°46'0 0.0
2015-Aug-22 16:32N 35°37' E 139°46'0 0.0
2015-Aug-22 15:32N 35°37' E 139°46'0 0.0
2015-Aug-22 14:32N 35°37' E 139°46'0 0.0
2015-Aug-22 13:32N 35°37' E 139°46'0 0.0
2015-Aug-22 12:29N 35°37' E 139°46'0 0.0
2015-Aug-22 11:32N 35°37' E 139°46'0 0.0
2015-Aug-22 10:32N 35°37' E 139°46'0 0.0
2015-Aug-22 09:33N 35°37' E 139°46'5 5.0
2015-Aug-22 08:33N 35°33' E 139°50'9 9.1
2015-Aug-22 07:33N 35°25' E 139°47'1212.2
2015-Aug-22 06:34N 35°13' E 139°47'10 9.6
2015-Aug-22 05:33N 35°04' E 139°43'8 8.2
2015-Aug-22 04:33N 34°59' E 139°34'3 3.4
2015-Aug-22 03:33N 34°58' E 139°31'1414.0
2015-Aug-22 02:33N 34°49' E 139°17'1714.3
2015-Aug-22 01:23N 34°34' E 139°07'  

Dump ship's entire track history